createdAt,value
2018-09-13T00:01:20.968Z,18.26
2018-09-13T00:03:49.200Z,18.32
2018-09-13T00:06:17.403Z,18.39
2018-09-13T00:08:45.653Z,18.51
2018-09-13T00:11:13.913Z,18.54
2018-09-13T00:13:42.143Z,18.60
2018-09-13T00:16:10.449Z,18.67
2018-09-13T00:18:38.712Z,18.69
2018-09-13T00:21:07.048Z,18.73
2018-09-13T00:23:35.300Z,18.69
2018-09-13T00:26:03.523Z,18.74
2018-09-13T00:28:31.736Z,18.73
2018-09-13T00:30:59.969Z,18.79
2018-09-13T00:33:28.184Z,18.86
2018-09-13T00:35:56.420Z,18.86
2018-09-13T00:38:24.630Z,18.90
2018-09-13T00:40:52.851Z,18.99
2018-09-13T00:43:21.061Z,19.02
2018-09-13T00:45:49.271Z,19.04
2018-09-13T00:48:17.480Z,18.97
2018-09-13T00:50:45.710Z,18.96
2018-09-13T00:53:13.911Z,18.98
2018-09-13T00:55:42.228Z,18.92
2018-09-13T00:58:10.452Z,18.91
2018-09-13T01:00:38.686Z,18.91
2018-09-13T01:03:06.995Z,18.89
2018-09-13T01:05:35.226Z,18.88
2018-09-13T01:08:03.436Z,18.89
2018-09-13T01:10:31.659Z,18.90
2018-09-13T01:12:59.861Z,18.92
2018-09-13T01:15:28.088Z,18.92
2018-09-13T01:17:56.276Z,19.02
2018-09-13T01:20:24.503Z,19.04
2018-09-13T01:22:52.720Z,19.09
2018-09-13T01:25:20.947Z,19.08
2018-09-13T01:27:49.148Z,19.13
2018-09-13T01:30:17.360Z,19.17
2018-09-13T01:32:45.579Z,19.14
2018-09-13T01:35:13.809Z,19.17
2018-09-13T01:37:42.027Z,19.12
2018-09-13T01:40:10.237Z,19.10
2018-09-13T01:42:38.465Z,18.96
2018-09-13T01:45:06.680Z,19.02
2018-09-13T01:47:34.921Z,19.04
2018-09-13T01:50:03.128Z,18.90
2018-09-13T01:52:31.376Z,18.95
2018-09-13T01:54:59.592Z,18.85
2018-09-13T01:57:27.829Z,18.84
2018-09-13T01:59:56.064Z,18.77
2018-09-13T02:02:24.304Z,18.78
2018-09-13T02:04:52.518Z,18.81
2018-09-13T02:07:20.749Z,18.66
2018-09-13T02:09:48.957Z,18.65
2018-09-13T02:12:17.183Z,18.62
2018-09-13T02:14:45.388Z,18.66
2018-09-13T02:17:13.616Z,18.70
2018-09-13T02:19:41.820Z,18.70
2018-09-13T02:22:10.061Z,18.74
2018-09-13T02:24:38.280Z,18.70
2018-09-13T02:27:06.500Z,18.70
2018-09-13T02:29:34.719Z,18.76
2018-09-13T02:32:02.930Z,18.60
2018-09-13T02:34:31.165Z,18.63
2018-09-13T02:36:59.377Z,18.62
2018-09-13T02:39:27.604Z,18.53
2018-09-13T02:41:56.084Z,18.54
2018-09-13T02:44:24.307Z,18.56
2018-09-13T02:46:52.516Z,18.61
2018-09-13T02:49:20.795Z,18.56
2018-09-13T02:51:48.977Z,18.63
2018-09-13T02:54:17.225Z,18.58
2018-09-13T02:56:45.440Z,18.51
2018-09-13T02:59:13.697Z,18.54
2018-09-13T03:01:41.932Z,18.48
2018-09-13T03:04:10.204Z,18.46
2018-09-13T03:06:38.456Z,18.44
2018-09-13T03:09:09.168Z,18.37
2018-09-13T03:11:37.531Z,18.34
2018-09-13T03:14:05.847Z,18.28
2018-09-13T03:16:34.075Z,18.31
2018-09-13T03:19:02.373Z,18.32
2018-09-13T03:21:30.623Z,18.24
2018-09-13T03:23:58.856Z,18.23
2018-09-13T03:26:27.067Z,18.21
2018-09-13T03:28:55.383Z,18.17
2018-09-13T03:31:23.711Z,18.09
2018-09-13T03:33:51.951Z,18.16
2018-09-13T03:36:20.187Z,18.11
2018-09-13T03:38:48.404Z,18.03
2018-09-13T03:41:16.635Z,17.97
2018-09-13T03:43:44.856Z,17.99
2018-09-13T03:46:13.129Z,18.02
2018-09-13T03:48:41.348Z,17.93
2018-09-13T03:51:09.598Z,17.97
2018-09-13T03:53:37.800Z,17.91
2018-09-13T03:56:06.333Z,17.77
2018-09-13T03:58:34.634Z,17.76
2018-09-13T04:01:02.949Z,17.64
2018-09-13T04:03:31.262Z,17.53
2018-09-13T04:05:59.426Z,17.54
2018-09-13T04:08:28.053Z,17.52
2018-09-13T04:10:56.393Z,17.60
2018-09-13T04:13:24.812Z,17.57
2018-09-13T04:15:53.055Z,17.67
2018-09-13T04:18:21.356Z,17.69
2018-09-13T04:20:50.140Z,17.76
2018-09-13T04:23:18.384Z,17.80
2018-09-13T04:25:46.640Z,17.78
2018-09-13T04:28:14.861Z,17.66
2018-09-13T04:30:43.103Z,17.66
2018-09-13T04:33:11.337Z,17.55
2018-09-13T04:35:39.681Z,17.56
2018-09-13T04:38:07.862Z,17.50
2018-09-13T04:40:36.820Z,17.53
2018-09-13T04:43:05.076Z,17.58
2018-09-13T04:45:33.292Z,17.54
2018-09-13T04:48:01.529Z,17.57
2018-09-13T04:50:29.733Z,17.42
2018-09-13T04:52:57.989Z,17.36
2018-09-13T04:55:26.209Z,17.31
2018-09-13T04:57:54.499Z,17.31
2018-09-13T05:00:22.762Z,17.36
2018-09-13T05:02:50.962Z,17.40
2018-09-13T05:05:19.219Z,17.34
2018-09-13T05:07:47.468Z,17.42
2018-09-13T05:10:15.679Z,17.33
2018-09-13T05:12:43.988Z,17.15
2018-09-13T05:15:12.147Z,17.07
2018-09-13T05:17:40.382Z,17.00
2018-09-13T05:20:08.610Z,16.96
2018-09-13T05:22:36.856Z,17.07
2018-09-13T05:25:05.129Z,17.15
2018-09-13T05:27:33.512Z,17.24
2018-09-13T05:30:01.756Z,17.33
2018-09-13T05:32:30.146Z,17.29
2018-09-13T05:34:58.381Z,17.34
2018-09-13T05:37:26.672Z,17.23
2018-09-13T05:39:54.902Z,17.20
2018-09-13T05:42:23.136Z,17.22
2018-09-13T05:44:51.421Z,17.31
2018-09-13T05:47:20.446Z,17.30
2018-09-13T05:49:48.736Z,17.06
2018-09-13T05:52:16.963Z,17.26
2018-09-13T05:54:45.249Z,17.38
2018-09-13T05:57:13.797Z,17.29
2018-09-13T05:59:42.069Z,17.13
2018-09-13T06:02:10.309Z,17.22
2018-09-13T06:04:38.540Z,17.18
2018-09-13T06:07:06.797Z,17.16
2018-09-13T06:09:35.048Z,17.26
2018-09-13T06:12:03.276Z,17.34
2018-09-13T06:14:31.520Z,17.39
2018-09-13T06:17:00.498Z,17.43
2018-09-13T06:19:28.749Z,17.49
2018-09-13T06:21:56.977Z,17.49
2018-09-13T06:24:25.263Z,17.47
2018-09-13T06:26:53.468Z,17.36
2018-09-13T06:29:21.757Z,17.42
2018-09-13T06:31:49.933Z,17.52
2018-09-13T06:34:18.204Z,17.52
2018-09-13T06:36:46.416Z,17.60
2018-09-13T06:39:14.681Z,17.69
2018-09-13T06:41:42.889Z,17.66
2018-09-13T06:44:11.364Z,17.73
2018-09-13T06:46:39.919Z,17.50
2018-09-13T06:49:08.336Z,17.46
2018-09-13T06:51:36.559Z,17.40
2018-09-13T06:54:04.835Z,17.39
2018-09-13T06:56:33.047Z,17.42
2018-09-13T06:59:01.349Z,17.54
2018-09-13T07:01:29.608Z,17.52
2018-09-13T07:03:57.816Z,17.47
2018-09-13T07:06:26.071Z,17.58
2018-09-13T07:08:54.356Z,17.59
2018-09-13T07:11:22.594Z,17.65
2018-09-13T07:13:51.823Z,17.75
2018-09-13T07:16:20.048Z,17.75
2018-09-13T07:18:48.385Z,17.76
2018-09-13T07:21:16.664Z,17.73
2018-09-13T07:23:44.948Z,17.68
2018-09-13T07:26:13.183Z,17.70
2018-09-13T07:28:41.408Z,17.73
2018-09-13T07:31:09.658Z,17.83
2018-09-13T07:33:38.055Z,17.81
2018-09-13T07:36:06.299Z,17.79
2018-09-13T07:38:34.496Z,17.66
2018-09-13T07:41:02.737Z,17.65
2018-09-13T07:43:30.948Z,17.65
2018-09-13T07:45:59.180Z,17.66
2018-09-13T07:48:27.396Z,17.54
2018-09-13T07:50:55.615Z,17.53
2018-09-13T07:53:23.880Z,17.53
2018-09-13T07:55:52.139Z,17.63
2018-09-13T07:58:20.376Z,17.64
2018-09-13T08:00:48.584Z,17.69
2018-09-13T08:03:16.820Z,17.71
2018-09-13T08:05:45.014Z,17.68
2018-09-13T08:08:13.235Z,17.77
2018-09-13T08:10:41.443Z,17.73
2018-09-13T08:13:09.697Z,17.78
2018-09-13T08:15:37.936Z,17.78
2018-09-13T08:18:06.177Z,17.79
2018-09-13T08:20:34.432Z,17.72
2018-09-13T08:23:02.681Z,17.71
2018-09-13T08:25:30.892Z,17.83
2018-09-13T08:27:59.832Z,17.89
2018-09-13T08:30:28.085Z,17.82
2018-09-13T08:32:56.319Z,17.76
2018-09-13T08:35:24.838Z,18.00
2018-09-13T08:37:53.132Z,18.13
2018-09-13T08:40:21.526Z,18.29
2018-09-13T08:42:49.653Z,18.32
2018-09-13T08:45:17.892Z,18.20
2018-09-13T08:47:46.145Z,18.19
2018-09-13T08:50:14.392Z,18.24
2018-09-13T08:52:42.629Z,18.33
2018-09-13T08:55:10.954Z,18.37
2018-09-13T08:57:39.969Z,18.50
2018-09-13T09:00:10.180Z,18.38
2018-09-13T09:02:38.638Z,18.20
2018-09-13T09:05:07.136Z,17.98
2018-09-13T09:07:35.903Z,18.03
2018-09-13T09:10:05.095Z,18.10
2018-09-13T09:12:33.384Z,17.98
2018-09-13T09:15:01.624Z,17.99
2018-09-13T09:17:29.848Z,18.09
2018-09-13T09:19:58.525Z,18.06
2018-09-13T09:22:26.788Z,18.08
2018-09-13T09:24:55.696Z,18.08
2018-09-13T09:27:24.004Z,18.21
2018-09-13T09:29:52.361Z,18.39
2018-09-13T09:32:20.550Z,18.34
2018-09-13T09:34:48.830Z,18.36
2018-09-13T09:37:17.028Z,18.24
2018-09-13T09:39:45.353Z,18.31
2018-09-13T09:42:13.508Z,18.24
2018-09-13T09:44:41.749Z,18.41
2018-09-13T09:47:09.988Z,18.54
2018-09-13T09:49:38.231Z,18.62
2018-09-13T09:52:06.529Z,18.41
2018-09-13T09:54:34.740Z,18.56
2018-09-13T09:57:02.992Z,18.46
2018-09-13T09:59:31.216Z,18.53
2018-09-13T10:02:04.704Z,18.69
2018-09-13T10:04:32.991Z,18.63
2018-09-13T10:07:01.332Z,18.60
2018-09-13T10:09:29.553Z,18.61
2018-09-13T10:11:57.843Z,18.65
2018-09-13T10:14:26.029Z,18.70
2018-09-13T10:16:59.520Z,18.66
2018-09-13T10:19:33.160Z,18.52
2018-09-13T10:23:06.546Z,18.41
2018-09-13T10:25:40.061Z,18.44
2018-09-13T10:28:13.728Z,18.63
2018-09-13T10:30:47.410Z,18.76
2018-09-13T10:33:20.904Z,18.63
2018-09-13T10:35:54.671Z,18.52
2018-09-13T10:38:28.264Z,18.56
2018-09-13T10:41:01.772Z,18.71
2018-09-13T10:43:35.250Z,18.82
2018-09-13T10:46:08.835Z,18.61
2018-09-13T10:48:37.030Z,18.84
2018-09-13T10:51:11.352Z,18.67
2018-09-13T10:53:44.016Z,18.86
2018-09-13T10:56:12.344Z,18.92
2018-09-13T10:58:40.899Z,18.80
2018-09-13T11:01:09.128Z,18.98
2018-09-13T11:03:37.393Z,19.01
2018-09-13T11:06:05.634Z,18.94
2018-09-13T11:08:33.868Z,19.06
2018-09-13T11:11:02.200Z,19.08
2018-09-13T11:13:38.347Z,19.21
2018-09-13T11:16:06.648Z,19.33
2018-09-13T11:18:35.017Z,19.12
2018-09-13T11:21:03.228Z,19.21
2018-09-13T11:23:31.472Z,18.98
2018-09-13T11:25:59.683Z,18.99
2018-09-13T11:28:27.936Z,18.94
2018-09-13T11:31:02.708Z,18.87
2018-09-13T11:33:31.404Z,18.75
2018-09-13T11:35:59.695Z,18.68
2018-09-13T11:38:27.956Z,18.75
2018-09-13T11:40:56.694Z,18.93
2018-09-13T11:43:24.759Z,19.02
2018-09-13T11:45:52.985Z,19.02
2018-09-13T11:48:21.230Z,19.19
2018-09-13T11:50:49.460Z,19.34
2018-09-13T11:53:17.687Z,19.36
2018-09-13T11:55:46.384Z,19.26
2018-09-13T11:58:15.792Z,19.19
2018-09-13T12:00:44.082Z,19.36
2018-09-13T12:03:13.335Z,19.34
2018-09-13T12:05:41.583Z,19.56
2018-09-13T12:08:10.732Z,19.70
2018-09-13T12:10:38.987Z,19.84
2018-09-13T12:13:07.235Z,19.95
2018-09-13T12:15:35.488Z,20.01
2018-09-13T12:18:03.845Z,20.02
2018-09-13T12:20:31.980Z,20.05
2018-09-13T12:23:00.200Z,20.19
2018-09-13T12:25:28.447Z,20.31
2018-09-13T12:27:56.709Z,20.25
2018-09-13T12:30:24.940Z,20.24
2018-09-13T12:32:53.188Z,20.18
2018-09-13T12:35:21.437Z,19.90
2018-09-13T12:37:49.683Z,19.65
2018-09-13T12:40:17.943Z,19.41
2018-09-13T12:42:46.188Z,19.44
2018-09-13T12:45:14.704Z,19.66
2018-09-13T12:47:42.925Z,19.70
2018-09-13T12:50:11.157Z,19.76
2018-09-13T12:52:39.422Z,19.94
2018-09-13T12:55:07.676Z,19.85
2018-09-13T12:57:36.011Z,19.91
2018-09-13T13:00:04.532Z,20.07
2018-09-13T13:02:32.768Z,20.29
2018-09-13T13:05:01.039Z,20.17
2018-09-13T13:07:29.288Z,20.28
2018-09-13T13:09:57.611Z,20.40
2018-09-13T13:12:25.896Z,20.52
2018-09-13T13:14:54.177Z,20.67
2018-09-13T13:17:22.442Z,20.39
2018-09-13T13:19:50.692Z,20.33
2018-09-13T13:22:18.980Z,20.32
2018-09-13T13:24:47.280Z,20.36
2018-09-13T13:27:15.603Z,20.34
2018-09-13T13:29:43.793Z,20.49
2018-09-13T13:32:12.032Z,20.66
2018-09-13T13:34:40.247Z,20.57
2018-09-13T13:37:08.488Z,20.40
2018-09-13T13:39:36.712Z,20.41
2018-09-13T13:42:04.956Z,20.57
2018-09-13T13:44:33.277Z,20.57
2018-09-13T13:47:01.509Z,20.35
2018-09-13T13:49:29.887Z,20.16
2018-09-13T13:51:58.048Z,20.23
2018-09-13T13:54:26.268Z,20.36
2018-09-13T13:56:54.498Z,20.52
2018-09-13T13:59:22.760Z,20.44
2018-09-13T14:01:51.538Z,20.55
2018-09-13T14:04:20.995Z,20.59
2018-09-13T14:06:49.244Z,20.67
2018-09-13T14:09:17.472Z,20.51
2018-09-13T14:11:45.933Z,20.63
2018-09-13T14:14:14.215Z,20.75
2018-09-13T14:16:43.500Z,20.89
2018-09-13T14:19:11.727Z,20.71
2018-09-13T14:21:39.964Z,20.77
2018-09-13T14:24:08.233Z,20.80
2018-09-13T14:26:36.501Z,20.89
2018-09-13T14:29:04.736Z,21.08
2018-09-13T14:31:33.147Z,21.27
2018-09-13T14:34:01.460Z,21.42
2018-09-13T14:36:29.684Z,21.46
2018-09-13T14:38:57.932Z,21.40
2018-09-13T14:41:26.165Z,21.35
2018-09-13T14:43:54.428Z,21.21
2018-09-13T14:46:22.671Z,21.28
2018-09-13T14:48:50.884Z,21.31
2018-09-13T14:51:19.132Z,21.38
2018-09-13T14:53:47.360Z,21.51
2018-09-13T14:56:15.613Z,21.55
2018-09-13T14:58:45.154Z,21.34
2018-09-13T15:01:13.519Z,21.13
2018-09-13T15:03:41.768Z,21.27
2018-09-13T15:06:10.140Z,21.42
2018-09-13T15:08:38.386Z,21.26
2018-09-13T15:11:06.705Z,21.10
2018-09-13T15:13:35.084Z,21.16
2018-09-13T15:16:03.371Z,20.98
2018-09-13T15:18:31.635Z,21.17
2018-09-13T15:20:59.913Z,21.46
2018-09-13T15:23:28.191Z,21.55
2018-09-13T15:25:56.530Z,21.47
2018-09-13T15:28:24.916Z,21.30
2018-09-13T15:30:53.300Z,21.30
2018-09-13T15:33:21.517Z,21.41
2018-09-13T15:35:49.881Z,21.27
2018-09-13T15:38:18.132Z,21.29
2018-09-13T15:40:46.411Z,21.31
2018-09-13T15:43:14.694Z,21.34
2018-09-13T15:45:42.926Z,21.46
2018-09-13T15:48:11.161Z,21.15
2018-09-13T15:50:39.485Z,21.08
2018-09-13T15:53:07.751Z,21.00
2018-09-13T15:55:36.000Z,20.94
2018-09-13T15:58:04.248Z,21.07
2018-09-13T16:00:32.629Z,20.92
2018-09-13T16:03:00.936Z,20.95
2018-09-13T16:05:29.427Z,20.97
2018-09-13T16:07:57.667Z,21.17
2018-09-13T16:10:25.924Z,21.17
2018-09-13T16:12:54.377Z,21.02
2018-09-13T16:15:22.503Z,21.04
2018-09-13T16:17:50.768Z,21.14
2018-09-13T16:20:19.123Z,21.21
2018-09-13T16:22:47.420Z,21.21
2018-09-13T16:25:16.235Z,21.15
2018-09-13T16:27:44.476Z,21.00
2018-09-13T16:30:12.740Z,20.97
2018-09-13T16:32:41.013Z,21.14
2018-09-13T16:35:09.263Z,21.04
2018-09-13T16:37:43.452Z,21.12
2018-09-13T16:40:16.684Z,21.23
2018-09-13T16:42:53.605Z,21.17
2018-09-13T16:45:26.605Z,21.01
2018-09-13T16:48:00.431Z,20.89
2018-09-13T16:50:28.733Z,20.91
2018-09-13T16:52:57.028Z,20.94
2018-09-13T16:55:25.289Z,20.87
2018-09-13T16:57:53.572Z,20.95
2018-09-13T17:00:23.276Z,20.96
2018-09-13T17:02:51.584Z,21.01
2018-09-13T17:05:19.824Z,21.04
2018-09-13T17:07:48.123Z,21.08
2018-09-13T17:10:16.587Z,21.04
2018-09-13T17:12:45.052Z,21.01
2018-09-13T17:15:13.328Z,21.06
2018-09-13T17:17:41.656Z,20.96
2018-09-13T17:20:09.908Z,20.92
2018-09-13T17:22:38.132Z,20.89
2018-09-13T17:25:06.473Z,20.86
2018-09-13T17:27:34.728Z,20.82
2018-09-13T17:30:03.040Z,20.80
2018-09-13T17:32:31.344Z,20.77
2018-09-13T17:35:00.356Z,20.75
2018-09-13T17:37:28.585Z,20.73
2018-09-13T17:39:59.021Z,20.72
2018-09-13T17:42:27.240Z,20.69
2018-09-13T17:44:55.517Z,20.64
2018-09-13T17:47:23.792Z,20.59
2018-09-13T17:49:52.021Z,20.57
2018-09-13T17:52:20.251Z,20.49
2018-09-13T17:54:48.505Z,20.42
2018-09-13T17:57:16.724Z,20.35
2018-09-13T17:59:45.013Z,20.29
2018-09-13T18:02:13.260Z,20.21
2018-09-13T18:04:41.509Z,20.05
2018-09-13T18:07:10.279Z,19.90
2018-09-13T18:09:38.656Z,19.79
2018-09-13T18:12:06.972Z,19.78
2018-09-13T18:14:35.272Z,19.73
2018-09-13T18:17:03.514Z,19.69
2018-09-13T18:19:31.766Z,19.65
2018-09-13T18:22:00.012Z,19.62
2018-09-13T18:24:28.253Z,19.58
2018-09-13T18:26:56.484Z,19.54
2018-09-13T18:29:24.696Z,19.43
2018-09-13T18:31:52.945Z,19.39
2018-09-13T18:34:21.262Z,19.37
2018-09-13T18:36:49.675Z,19.41
2018-09-13T18:39:17.980Z,19.42
2018-09-13T18:41:46.316Z,19.39
2018-09-13T18:44:14.544Z,19.35
2018-09-13T18:46:42.800Z,19.34
2018-09-13T18:55:15.927Z,19.17
2018-09-13T18:57:44.204Z,19.12
2018-09-13T19:00:12.446Z,18.51
2018-09-13T19:02:40.749Z,18.98
2018-09-13T19:05:09.015Z,18.96
2018-09-13T19:07:37.314Z,18.88
2018-09-13T19:10:05.983Z,18.84
2018-09-13T19:12:34.265Z,18.79
2018-09-13T19:15:02.515Z,18.73
2018-09-13T19:17:30.760Z,18.61
2018-09-13T19:19:58.996Z,18.52
2018-09-13T19:22:27.268Z,18.47
2018-09-13T19:24:55.522Z,18.45
2018-09-13T19:27:23.765Z,18.51
2018-09-13T19:29:51.977Z,18.48
2018-09-13T19:32:20.245Z,18.44
2018-09-13T19:34:48.463Z,18.41
2018-09-13T19:37:17.238Z,18.36
2018-09-13T19:39:45.473Z,18.36
2018-09-13T19:42:15.486Z,18.34
2018-09-13T19:44:43.740Z,18.48
2018-09-13T19:47:12.073Z,18.45
2018-09-13T19:49:40.329Z,18.43
2018-09-13T19:52:08.621Z,18.37
2018-09-13T19:54:37.185Z,18.28
2018-09-13T19:57:05.658Z,18.20
2018-09-13T19:59:34.017Z,18.16
2018-09-13T20:02:02.304Z,18.11
2018-09-13T20:04:30.680Z,18.10
2018-09-13T20:06:58.952Z,18.09
2018-09-13T20:09:27.192Z,18.05
2018-09-13T20:11:55.464Z,18.00
2018-09-13T20:14:23.770Z,17.95
2018-09-13T20:16:52.732Z,17.86
2018-09-13T20:19:21.053Z,17.81
2018-09-13T20:21:49.332Z,17.78
2018-09-13T20:24:17.596Z,17.72
2018-09-13T20:26:46.093Z,17.70
2018-09-13T20:29:14.488Z,17.76
2018-09-13T20:31:42.708Z,17.76
2018-09-13T20:34:10.976Z,17.71
2018-09-13T20:36:39.321Z,17.69
2018-09-13T20:39:09.634Z,17.65
2018-09-13T20:41:37.833Z,17.62
2018-09-13T20:44:06.340Z,17.60
2018-09-13T20:46:34.562Z,17.60
2018-09-13T20:49:02.821Z,17.59
2018-09-13T20:51:31.050Z,17.59
2018-09-13T20:53:59.277Z,17.51
2018-09-13T20:56:27.600Z,17.47
2018-09-13T20:58:55.852Z,17.42
2018-09-13T21:01:24.122Z,17.33
2018-09-13T21:03:52.348Z,17.30
2018-09-13T21:06:20.661Z,17.30
2018-09-13T21:08:48.909Z,17.15
2018-09-13T21:11:17.244Z,17.10
2018-09-13T21:13:45.485Z,16.99
2018-09-13T21:16:14.693Z,17.04
2018-09-13T21:18:42.932Z,17.08
2018-09-13T21:21:11.180Z,17.02
2018-09-13T21:23:40.305Z,16.94
2018-09-13T21:26:08.658Z,16.80
2018-09-13T21:28:36.954Z,16.73
2018-09-13T21:31:05.205Z,16.72
2018-09-13T21:33:33.705Z,16.72
2018-09-13T21:36:02.265Z,16.65
2018-09-13T21:38:30.484Z,16.60
2018-09-13T21:40:58.740Z,16.59
2018-09-13T21:43:26.969Z,16.57
2018-09-13T21:45:55.221Z,16.51
2018-09-13T21:48:23.441Z,16.52
2018-09-13T21:50:51.718Z,16.57
2018-09-13T21:53:19.941Z,16.56
2018-09-13T21:55:48.960Z,16.51
2018-09-13T21:58:17.180Z,16.51
2018-09-13T22:00:45.420Z,16.51
2018-09-13T22:03:13.644Z,16.50
2018-09-13T22:05:42.232Z,16.45
2018-09-13T22:08:10.780Z,16.36
2018-09-13T22:10:40.185Z,16.29
2018-09-13T22:13:08.413Z,16.25
2018-09-13T22:15:36.641Z,16.17
2018-09-13T22:18:04.880Z,16.12
2018-09-13T22:20:33.124Z,16.04
2018-09-13T22:23:01.337Z,16.07
2018-09-13T22:25:30.604Z,16.13
2018-09-13T22:27:58.812Z,16.14
2018-09-13T22:30:27.061Z,16.10
2018-09-13T22:32:55.265Z,16.06
2018-09-13T22:35:23.517Z,16.08
2018-09-13T22:37:51.769Z,16.07
2018-09-13T22:40:19.993Z,16.01
2018-09-13T22:42:48.347Z,15.93
2018-09-13T22:45:16.556Z,15.90
2018-09-13T22:47:44.779Z,15.81
2018-09-13T22:50:13.012Z,15.73
2018-09-13T22:52:41.253Z,15.68
2018-09-13T22:55:09.509Z,15.69
2018-09-13T22:57:37.733Z,15.65
2018-09-13T23:00:06.325Z,15.63
2018-09-13T23:02:39.955Z,15.63
2018-09-13T23:05:08.201Z,15.62
2018-09-13T23:07:36.461Z,15.61
2018-09-13T23:10:04.918Z,15.63
2018-09-13T23:12:33.192Z,15.65
2018-09-13T23:15:01.438Z,15.56
2018-09-13T23:17:29.736Z,15.52
2018-09-13T23:19:57.940Z,15.46
2018-09-13T23:22:26.193Z,15.45
2018-09-13T23:24:54.413Z,15.49
2018-09-13T23:27:22.684Z,15.49
2018-09-13T23:29:50.913Z,15.43
2018-09-13T23:32:19.168Z,15.36
2018-09-13T23:34:47.387Z,15.30
2018-09-13T23:37:15.624Z,15.32
2018-09-13T23:39:44.189Z,15.33
2018-09-13T23:42:12.108Z,15.30
2018-09-13T23:44:40.322Z,15.25
2018-09-13T23:47:08.573Z,15.28
2018-09-13T23:49:36.852Z,15.31
2018-09-13T23:52:05.105Z,15.29
2018-09-13T23:54:33.320Z,15.25
2018-09-13T23:57:01.583Z,15.23
2018-09-13T23:59:29.836Z,15.15
